Private Wetterstation Sandau
Wetterdaten: Freitag, 01.02.2013
Datum Zeit Temp. A. Feuchte A. Luftdruck Regen Wind Richtung Richtung Taupunkt Windchill
01.02.2013 00:01 6,8 C 74 % 1002,3 hPa 0,0 l/m 35,3 km/h (5 Bft) W 270 2,5 C 2,0 C
01.02.2013 00:06 6,8 C 74 % 1002,4 hPa 0,0 l/m 17,6 km/h (3 Bft) W 270 2,5 C 3,6 C
01.02.2013 00:11 6,7 C 74 % 1002,1 hPa 0,0 l/m 15,8 km/h (3 Bft) W-SW 247 2,4 C 3,7 C
01.02.2013 00:16 6,8 C 73 % 1002,3 hPa 0,0 l/m 12,2 km/h (2 Bft) W-NW 292 2,3 C 4,4 C
01.02.2013 00:21 6,8 C 73 % 1002,4 hPa 0,0 l/m 27,4 km/h (4 Bft) NW 315 2,3 C 2,6 C
01.02.2013 00:26 6,8 C 72 % 1002,3 hPa 0,0 l/m 20,9 km/h (4 Bft) W-SW 247 2,1 C 3,2 C
01.02.2013 00:31 6,8 C 72 % 1002,5 hPa 0,0 l/m 28,1 km/h (4 Bft) W-SW 247 2,1 C 2,6 C
01.02.2013 00:36 6,9 C 72 % 1002,4 hPa 0,0 l/m 34,6 km/h (5 Bft) W 270 2,2 C 2,2 C
01.02.2013 00:41 6,8 C 72 % 1002,4 hPa 0,0 l/m 16,6 km/h (3 Bft) W 270 2,1 C 3,7 C
01.02.2013 00:46 6,8 C 73 % 1002,4 hPa 0,0 l/m 7,9 km/h (2 Bft) W-SW 247 2,3 C 5,3 C
01.02.2013 00:51 6,7 C 74 % 1002,4 hPa 0,0 l/m 9,7 km/h (2 Bft) W 270 2,4 C 4,8 C
01.02.2013 00:56 6,6 C 74 % 1002,4 hPa 0,0 l/m 14,4 km/h (3 Bft) W-SW 247 2,3 C 3,8 C
01.02.2013 01:01 6,5 C 74 % 1002,6 hPa 0,0 l/m 13,0 km/h (3 Bft) W 270 2,2 C 3,9 C
01.02.2013 01:06 6,5 C 75 % 1002,4 hPa 0,0 l/m 17,3 km/h (3 Bft) W-SW 247 2,4 C 3,3 C
01.02.2013 01:11 6,4 C 74 % 1002,5 hPa 0,0 l/m 25,2 km/h (4 Bft) W 270 2,1 C 2,3 C
01.02.2013 01:16 6,4 C 74 % 1002,5 hPa 0,0 l/m 15,5 km/h (3 Bft) W 270 2,1 C 3,4 C
01.02.2013 01:21 6,4 C 74 % 1002,6 hPa 0,0 l/m 26,3 km/h (4 Bft) W-SW 247 2,1 C 2,2 C
01.02.2013 01:26 6,4 C 75 % 1002,6 hPa 0,0 l/m 25,2 km/h (4 Bft) W 270 2,3 C 2,3 C
01.02.2013 01:31 6,4 C 75 % 1002,6 hPa 0,0 l/m 12,2 km/h (2 Bft) W 270 2,3 C 3,9 C
01.02.2013 01:36 6,4 C 75 % 1002,8 hPa 0,0 l/m 8,6 km/h (2 Bft) W-NW 292 2,3 C 4,6 C
01.02.2013 01:41 6,4 C 75 % 1002,8 hPa 0,0 l/m 25,2 km/h (4 Bft) W 270 2,3 C 2,3 C
01.02.2013 01:46 6,4 C 75 % 1002,8 hPa 0,0 l/m 22,7 km/h (4 Bft) W-NW 292 2,3 C 2,5 C
01.02.2013 01:51 6,4 C 75 % 1002,5 hPa 0,0 l/m 25,6 km/h (4 Bft) W 270 2,3 C 2,3 C
01.02.2013 01:56 6,4 C 74 % 1002,7 hPa 0,0 l/m 29,2 km/h (5 Bft) W 270 2,1 C 1,9 C
01.02.2013 02:01 6,4 C 74 % 1002,6 hPa 0,0 l/m 17,3 km/h (3 Bft) W 270 2,1 C 3,2 C
01.02.2013 02:06 6,5 C 74 % 1002,7 hPa 0,0 l/m 19,4 km/h (3 Bft) W-SW 247 2,2 C 3,0 C
01.02.2013 02:11 6,5 C 74 % 1002,8 hPa 0,0 l/m 15,8 km/h (3 Bft) W 270 2,2 C 3,5 C
01.02.2013 02:16 6,5 C 74 % 1002,7 hPa 0,0 l/m 11,9 km/h (2 Bft) W 270 2,2 C 4,1 C
01.02.2013 02:21 6,5 C 74 % 1002,8 hPa 0,0 l/m 14,8 km/h (3 Bft) NW 315 2,2 C 3,6 C
01.02.2013 02:26 6,5 C 74 % 1002,9 hPa 0,0 l/m 14,4 km/h (3 Bft) W-SW 247 2,2 C 3,7 C
01.02.2013 02:31 6,5 C 74 % 1003,0 hPa 0,0 l/m 7,6 km/h (2 Bft) W 270 2,2 C 5,0 C
01.02.2013 02:36 6,5 C 74 % 1002,8 hPa 0,0 l/m 39,2 km/h (6 Bft) W-SW 247 2,2 C 1,3 C
01.02.2013 02:41 6,5 C 74 % 1002,8 hPa 0,0 l/m 25,2 km/h (4 Bft) W-SW 247 2,2 C 2,4 C
01.02.2013 02:46 6,6 C 74 % 1002,8 hPa 0,0 l/m 24,1 km/h (4 Bft) W-NW 292 2,3 C 2,7 C
01.02.2013 02:51 6,6 C 73 % 1003,0 hPa 0,0 l/m 18,7 km/h (3 Bft) W-NW 292 2,1 C 3,2 C
01.02.2013 02:56 6,6 C 73 % 1002,9 hPa 0,0 l/m 23,8 km/h (4 Bft) W-NW 292 2,1 C 2,7 C
01.02.2013 03:01 6,6 C 73 % 1003,0 hPa 0,0 l/m 14,4 km/h (3 Bft) W-SW 247 2,1 C 3,8 C
01.02.2013 03:06 6,5 C 74 % 1002,9 hPa 0,0 l/m 12,2 km/h (2 Bft) W 270 2,2 C 4,0 C
01.02.2013 03:11 6,4 C 74 % 1002,8 hPa 0,0 l/m 24,1 km/h (4 Bft) W 270 2,1 C 2,4 C
01.02.2013 03:16 6,4 C 74 % 1002,8 hPa 0,0 l/m 15,5 km/h (3 Bft) W-NW 292 2,1 C 3,4 C
01.02.2013 03:21 6,4 C 74 % 1003,1 hPa 0,0 l/m 31,3 km/h (5 Bft) W 270 2,1 C 1,8 C
01.02.2013 03:26 6,4 C 74 % 1003,2 hPa 0,0 l/m 32,8 km/h (5 Bft) W 270 2,1 C 1,7 C
01.02.2013 03:31 6,4 C 74 % 1003,1 hPa 0,0 l/m 11,9 km/h (2 Bft) W-SW 247 2,1 C 4,0 C
01.02.2013 03:36 6,4 C 74 % 1003,0 hPa 0,0 l/m 23,0 km/h (4 Bft) W-SW 247 2,1 C 2,5 C
01.02.2013 03:41 6,4 C 74 % 1003,1 hPa 0,0 l/m 23,8 km/h (4 Bft) W 270 2,1 C 2,4 C
01.02.2013 03:46 6,4 C 74 % 1003,2 hPa 0,0 l/m 43,6 km/h (6 Bft) W 270 2,1 C 0,9 C
01.02.2013 03:51 6,4 C 74 % 1003,1 hPa 0,0 l/m 7,9 km/h (2 Bft) W-NW 292 2,1 C 4,8 C
01.02.2013 03:56 6,4 C 74 % 1003,0 hPa 0,0 l/m 11,5 km/h (2 Bft) W-SW 247 2,1 C 4,0 C
01.02.2013 04:01 6,3 C 74 % 1003,1 hPa 0,0 l/m 20,9 km/h (4 Bft) W 270 2,0 C 2,6 C
01.02.2013 04:06 6,3 C 74 % 1003,0 hPa 0,0 l/m 32,4 km/h (5 Bft) W 270 2,0 C 1,6 C
01.02.2013 04:11 6,3 C 74 % 1003,1 hPa 0,0 l/m 16,2 km/h (3 Bft) W 270 2,0 C 3,2 C
01.02.2013 04:16 6,3 C 74 % 1003,3 hPa 0,0 l/m 20,2 km/h (4 Bft) W-NW 292 2,0 C 2,7 C
01.02.2013 04:21 6,3 C 75 % 1003,4 hPa 0,0 l/m 22,7 km/h (4 Bft) W 270 2,2 C 2,4 C
01.02.2013 04:26 6,3 C 75 % 1003,4 hPa 0,0 l/m 18,4 km/h (3 Bft) W 270 2,2 C 2,9 C
01.02.2013 04:31 6,3 C 75 % 1003,3 hPa 0,0 l/m 18,0 km/h (3 Bft) W-NW 292 2,2 C 2,9 C
01.02.2013 04:36 6,2 C 76 % 1003,3 hPa 0,0 l/m 13,7 km/h (3 Bft) NW 315 2,3 C 3,4 C
01.02.2013 04:41 6,2 C 76 % 1003,4 hPa 0,0 l/m 13,7 km/h (3 Bft) W-SW 247 2,3 C 3,4 C
01.02.2013 04:46 6,2 C 76 % 1003,6 hPa 0,0 l/m 25,2 km/h (4 Bft) W 270 2,3 C 2,0 C
01.02.2013 04:51 6,1 C 78 % 1003,7 hPa 0,0 l/m 9,7 km/h (2 Bft) W 270 2,6 C 4,0 C
01.02.2013 04:56 6,1 C 78 % 1003,8 hPa 0,0 l/m 20,9 km/h (4 Bft) W-SW 247 2,6 C 2,4 C
01.02.2013 05:01 5,9 C 79 % 1003,9 hPa 0,0 l/m 8,3 km/h (2 Bft) W 270 2,5 C 4,1 C
01.02.2013 05:06 5,9 C 80 % 1004,0 hPa 0,0 l/m 16,9 km/h (3 Bft) W-SW 247 2,7 C 2,6 C
01.02.2013 05:11 5,8 C 81 % 1003,8 hPa 0,0 l/m 20,9 km/h (4 Bft) W-SW 247 2,8 C 2,0 C
01.02.2013 05:16 5,6 C 81 % 1003,8 hPa 0,0 l/m 10,1 km/h (2 Bft) NW 315 2,6 C 3,4 C
01.02.2013 05:21 5,6 C 82 % 1003,9 hPa 0,0 l/m 11,2 km/h (2 Bft) W-NW 292 2,8 C 3,1 C
01.02.2013 05:26 5,6 C 82 % 1003,9 hPa 0,0 l/m 10,8 km/h (2 Bft) W-NW 292 2,8 C 3,2 C
01.02.2013 05:31 5,6 C 82 % 1004,0 hPa 0,0 l/m 6,8 km/h (2 Bft) NW 315 2,8 C 4,2 C
01.02.2013 05:36 5,6 C 82 % 1004,0 hPa 0,0 l/m 11,5 km/h (2 Bft) NW 315 2,8 C 3,1 C
01.02.2013 05:41 5,6 C 82 % 1003,9 hPa 0,0 l/m 6,8 km/h (2 Bft) W 270 2,8 C 4,2 C
01.02.2013 05:46 5,6 C 82 % 1003,8 hPa 0,0 l/m 10,8 km/h (2 Bft) W 270 2,8 C 3,2 C
01.02.2013 05:51 5,6 C 82 % 1003,6 hPa 0,0 l/m 5,4 km/h (1 Bft) W 270 2,8 C 4,6 C
01.02.2013 05:56 5,6 C 82 % 1003,5 hPa 0,0 l/m 6,1 km/h (2 Bft) W-SW 247 2,8 C 4,4 C
01.02.2013 06:01 5,6 C 81 % 1003,4 hPa 0,0 l/m 9,0 km/h (2 Bft) W 270 2,6 C 3,6 C
01.02.2013 06:06 5,6 C 81 % 1003,4 hPa 0,0 l/m 9,7 km/h (2 Bft) W-NW 292 2,6 C 3,4 C
01.02.2013 06:11 5,6 C 81 % 1003,4 hPa 0,0 l/m 18,0 km/h (3 Bft) W 270 2,6 C 2,1 C
01.02.2013 06:16 5,6 C 81 % 1003,5 hPa 0,0 l/m 16,9 km/h (3 Bft) W 270 2,6 C 2,2 C
01.02.2013 06:21 5,6 C 81 % 1003,5 hPa 0,0 l/m 16,9 km/h (3 Bft) W 270 2,6 C 2,2 C
01.02.2013 06:26 5,6 C 81 % 1003,5 hPa 0,0 l/m 22,7 km/h (4 Bft) W-NW 292 2,6 C 1,5 C
01.02.2013 06:31 5,6 C 81 % 1003,6 hPa 0,0 l/m 7,9 km/h (2 Bft) W-NW 292 2,6 C 3,9 C
01.02.2013 06:36 5,6 C 81 % 1003,5 hPa 0,0 l/m 15,1 km/h (3 Bft) W-SW 247 2,6 C 2,5 C
01.02.2013 06:41 5,6 C 81 % 1003,5 hPa 0,0 l/m 23,0 km/h (4 Bft) W 270 2,6 C 1,5 C
01.02.2013 06:46 5,6 C 81 % 1003,5 hPa 0,0 l/m 10,8 km/h (2 Bft) W-SW 247 2,6 C 3,2 C
01.02.2013 06:51 5,6 C 81 % 1003,5 hPa 0,0 l/m 10,8 km/h (2 Bft) W 270 2,6 C 3,2 C
01.02.2013 06:56 5,6 C 81 % 1003,4 hPa 0,0 l/m 16,9 km/h (3 Bft) W 270 2,6 C 2,2 C
01.02.2013 07:01 5,6 C 81 % 1003,6 hPa 0,0 l/m 13,7 km/h (3 Bft) W-SW 247 2,6 C 2,7 C
01.02.2013 07:06 5,6 C 81 % 1003,3 hPa 0,0 l/m 9,7 km/h (2 Bft) W 270 2,6 C 3,4 C
01.02.2013 07:11 5,5 C 81 % 1003,5 hPa 0,0 l/m 20,5 km/h (4 Bft) W 270 2,5 C 1,6 C
01.02.2013 07:16 5,4 C 81 % 1003,5 hPa 0,0 l/m 14,8 km/h (3 Bft) W 270 2,4 C 2,3 C
01.02.2013 07:21 5,4 C 81 % 1003,4 hPa 0,0 l/m 21,2 km/h (4 Bft) W 270 2,4 C 1,4 C
01.02.2013 07:26 5,4 C 81 % 1003,7 hPa 0,0 l/m 17,3 km/h (3 Bft) W-NW 292 2,4 C 1,9 C
01.02.2013 07:31 5,3 C 81 % 1003,5 hPa 0,0 l/m 13,7 km/h (3 Bft) W 270 2,3 C 2,3 C
01.02.2013 07:36 5,3 C 82 % 1003,6 hPa 0,0 l/m 14,8 km/h (3 Bft) W 270 2,5 C 2,1 C
01.02.2013 07:41 5,4 C 82 % 1003,5 hPa 0,0 l/m 21,2 km/h (4 Bft) W 270 2,6 C 1,4 C
01.02.2013 07:46 5,4 C 82 % 1003,5 hPa 0,0 l/m 10,4 km/h (2 Bft) W-NW 292 2,6 C 3,1 C
01.02.2013 07:51 5,4 C 82 % 1003,7 hPa 0,0 l/m 7,9 km/h (2 Bft) W-NW 292 2,6 C 3,6 C
01.02.2013 07:56 5,4 C 82 % 1003,5 hPa 0,0 l/m 10,4 km/h (2 Bft) W-SW 247 2,6 C 3,1 C
01.02.2013 08:01 5,3 C 82 % 1003,5 hPa 0,0 l/m 7,2 km/h (2 Bft) W-NW 292 2,5 C 3,7 C
01.02.2013 08:06 5,3 C 82 % 1003,5 hPa 0,0 l/m 7,2 km/h (2 Bft) W 270 2,5 C 3,7 C
01.02.2013 08:11 5,3 C 82 % 1003,4 hPa 0,0 l/m 3,6 km/h (1 Bft) W-NW 292 2,5 C 5,3 C
01.02.2013 08:16 5,4 C 82 % 1003,4 hPa 0,0 l/m 6,5 km/h (2 Bft) N-NW 337 2,6 C 4,0 C
01.02.2013 08:21 5,4 C 82 % 1003,5 hPa 0,0 l/m 9,4 km/h (2 Bft) W-SW 247 2,6 C 3,3 C
01.02.2013 08:26 5,3 C 82 % 1003,6 hPa 0,0 l/m 18,0 km/h (3 Bft) W-SW 247 2,5 C 1,7 C
01.02.2013 08:31 5,3 C 82 % 1003,6 hPa 0,0 l/m 20,5 km/h (4 Bft) W 270 2,5 C 1,4 C
01.02.2013 08:36 5,3 C 83 % 1003,7 hPa 0,0 l/m 9,7 km/h (2 Bft) W-SW 247 2,7 C 3,1 C
01.02.2013 08:41 5,3 C 83 % 1003,5 hPa 0,0 l/m 10,8 km/h (2 Bft) W-SW 247 2,7 C 2,9 C
01.02.2013 08:46 5,3 C 83 % 1003,4 hPa 0,0 l/m 18,4 km/h (3 Bft) W-SW 247 2,7 C 1,6 C
01.02.2013 08:51 5,3 C 83 % 1003,3 hPa 0,0 l/m 23,4 km/h (4 Bft) W-SW 247 2,7 C 1,1 C
01.02.2013 08:56 5,3 C 83 % 1003,4 hPa 0,0 l/m 17,3 km/h (3 Bft) W-SW 247 2,7 C 1,8 C
01.02.2013 09:01 5,3 C 83 % 1003,4 hPa 0,0 l/m 13,7 km/h (3 Bft) W-SW 247 2,7 C 2,3 C
01.02.2013 09:06 5,3 C 83 % 1003,4 hPa 0,0 l/m 14,4 km/h (3 Bft) W-SW 247 2,7 C 2,2 C
01.02.2013 09:11 5,3 C 83 % 1003,3 hPa 0,0 l/m 9,4 km/h (2 Bft) W-SW 247 2,7 C 3,1 C
01.02.2013 09:16 5,3 C 83 % 1003,1 hPa 0,0 l/m 14,4 km/h (3 Bft) W 270 2,7 C 2,2 C
01.02.2013 09:21 5,3 C 83 % 1003,2 hPa 0,0 l/m 21,2 km/h (4 Bft) W 270 2,7 C 1,3 C
01.02.2013 09:26 5,3 C 83 % 1003,2 hPa 0,0 l/m 19,1 km/h (3 Bft) W 270 2,7 C 1,6 C
01.02.2013 09:31 5,4 C 83 % 1003,2 hPa 0,0 l/m 7,2 km/h (2 Bft) W 270 2,7 C 3,8 C
01.02.2013 09:36 5,4 C 83 % 1003,2 hPa 0,0 l/m 13,3 km/h (3 Bft) W-SW 247 2,7 C 2,5 C
01.02.2013 09:41 5,6 C 83 % 1003,1 hPa 0,0 l/m 14,4 km/h (3 Bft) W 270 2,9 C 2,6 C
01.02.2013 09:46 5,6 C 83 % 1003,3 hPa 0,0 l/m 18,4 km/h (3 Bft) W 270 2,9 C 2,0 C
01.02.2013 09:51 5,8 C 82 % 1003,1 hPa 0,0 l/m 18,4 km/h (3 Bft) W 270 3,0 C 2,3 C
01.02.2013 09:56 5,8 C 82 % 1003,1 hPa 0,0 l/m 22,0 km/h (4 Bft) W 270 3,0 C 1,9 C
01.02.2013 10:01 5,9 C 82 % 1003,3 hPa 0,0 l/m 27,7 km/h (4 Bft) W-SW 247 3,1 C 1,4 C
01.02.2013 10:06 5,9 C 82 % 1003,2 hPa 0,5 l/m 19,4 km/h (3 Bft) W-SW 247 3,1 C 2,3 C
01.02.2013 10:11 6,0 C 82 % 1003,4 hPa 0,0 l/m 22,7 km/h (4 Bft) W 270 3,2 C 2,0 C
01.02.2013 10:16 6,1 C 81 % 1003,4 hPa 0,0 l/m 6,1 km/h (2 Bft) W-SW 247 3,1 C 5,0 C
01.02.2013 10:21 6,1 C 81 % 1003,4 hPa 0,0 l/m 13,7 km/h (3 Bft) W 270 3,1 C 3,3 C
01.02.2013 10:26 6,2 C 81 % 1003,3 hPa 0,0 l/m 10,1 km/h (2 Bft) W-SW 247 3,2 C 4,1 C
01.02.2013 10:31 6,2 C 81 % 1003,1 hPa 0,0 l/m 10,8 km/h (2 Bft) W 270 3,2 C 3,9 C
01.02.2013 10:36 6,2 C 81 % 1003,2 hPa 0,0 l/m 12,6 km/h (3 Bft) W 270 3,2 C 3,6 C
01.02.2013 10:41 6,2 C 81 % 1003,2 hPa 0,0 l/m 27,4 km/h (4 Bft) W 270 3,2 C 1,8 C
01.02.2013 10:46 6,3 C 81 % 1002,9 hPa 0,0 l/m 13,7 km/h (3 Bft) W 270 3,3 C 3,5 C
01.02.2013 10:51 6,3 C 81 % 1002,8 hPa 0,0 l/m 14,8 km/h (3 Bft) W 270 3,3 C 3,4 C
01.02.2013 10:56 6,3 C 81 % 1002,7 hPa 0,0 l/m 19,4 km/h (3 Bft) W 270 3,3 C 2,8 C
01.02.2013 11:01 6,4 C 81 % 1002,7 hPa 0,0 l/m 7,6 km/h (2 Bft) W-SW 247 3,4 C 4,9 C
01.02.2013 11:06 6,4 C 81 % 1002,7 hPa 0,0 l/m 5,8 km/h (2 Bft) W-SW 247 3,4 C 5,4 C
01.02.2013 11:11 6,4 C 81 % 1002,7 hPa 0,0 l/m 4,0 km/h (1 Bft) W-NW 292 3,4 C 6,4 C
01.02.2013 11:16 6,6 C 81 % 1002,7 hPa 0,0 l/m 9,7 km/h (2 Bft) W-SW 247 3,6 C 4,6 C
01.02.2013 11:21 6,6 C 81 % 1002,6 hPa 0,0 l/m 14,4 km/h (3 Bft) W 270 3,6 C 3,8 C
01.02.2013 11:26 6,7 C 81 % 1002,7 hPa 0,0 l/m 5,4 km/h (1 Bft) W-SW 247 3,7 C 5,9 C
01.02.2013 11:31 6,7 C 81 % 1002,7 hPa 0,0 l/m 5,4 km/h (1 Bft) W-SW 247 3,7 C 5,9 C
01.02.2013 11:36 6,8 C 81 % 1002,4 hPa 0,0 l/m 13,7 km/h (3 Bft) W-SW 247 3,8 C 4,2 C
01.02.2013 11:41 6,8 C 81 % 1002,6 hPa 0,0 l/m 6,1 km/h (2 Bft) W 270 3,8 C 5,8 C
01.02.2013 11:46 6,9 C 80 % 1002,4 hPa 0,0 l/m 10,1 km/h (2 Bft) W 270 3,7 C 4,9 C
01.02.2013 11:51 6,9 C 80 % 1002,3 hPa 0,0 l/m 4,3 km/h (1 Bft) W-SW 247 3,7 C 6,9 C
01.02.2013 11:56 6,9 C 80 % 1002,3 hPa 0,0 l/m 7,2 km/h (2 Bft) W 270 3,7 C 5,6 C
01.02.2013 12:01 6,9 C 80 % 1002,3 hPa 0,0 l/m 9,0 km/h (2 Bft) W-SW 247 3,7 C 5,1 C
01.02.2013 12:06 7,0 C 80 % 1002,5 hPa 0,0 l/m 6,8 km/h (2 Bft) W-SW 247 3,8 C 5,8 C
01.02.2013 12:11 7,0 C 80 % 1002,3 hPa 0,0 l/m 6,5 km/h (2 Bft) W-SW 247 3,8 C 5,9 C
01.02.2013 12:16 7,1 C 80 % 1002,3 hPa 0,0 l/m 4,7 km/h (1 Bft) W 270 3,9 C 6,6 C
01.02.2013 12:21 7,1 C 80 % 1002,3 hPa 0,0 l/m 19,8 km/h (3 Bft) W 270 3,9 C 3,7 C
01.02.2013 12:26 7,1 C 80 % 1002,1 hPa 0,0 l/m 11,2 km/h (2 Bft) NW 315 3,9 C 4,9 C
01.02.2013 12:31 7,0 C 80 % 1002,2 hPa 0,0 l/m 7,6 km/h (2 Bft) W 270 3,8 C 5,6 C
01.02.2013 12:36 6,9 C 80 % 1002,2 hPa 0,0 l/m 6,5 km/h (2 Bft) W 270 3,7 C 5,8 C
01.02.2013 12:41 6,9 C 80 % 1002,1 hPa 0,0 l/m 5,4 km/h (1 Bft) W-SW 247 3,7 C 6,1 C
01.02.2013 12:46 6,9 C 80 % 1001,8 hPa 0,0 l/m 5,4 km/h (1 Bft) W-SW 247 3,7 C 6,1 C
01.02.2013 12:51 6,9 C 80 % 1001,8 hPa 0,0 l/m 11,9 km/h (2 Bft) W-SW 247 3,7 C 4,6 C
01.02.2013 12:56 6,9 C 80 % 1001,8 hPa 0,0 l/m 9,4 km/h (2 Bft) W-SW 247 3,7 C 5,1 C
01.02.2013 13:01 6,9 C 80 % 1001,7 hPa 0,0 l/m 5,4 km/h (1 Bft) W-SW 247 3,7 C 6,1 C
01.02.2013 13:06 6,9 C 80 % 1001,5 hPa 0,0 l/m 9,4 km/h (2 Bft) W-SW 247 3,7 C 5,1 C
01.02.2013 13:11 6,9 C 80 % 1001,5 hPa 0,0 l/m 7,2 km/h (2 Bft) W-SW 247 3,7 C 5,6 C
01.02.2013 13:16 6,9 C 80 % 1001,4 hPa 0,0 l/m 4,7 km/h (1 Bft) W-SW 247 3,7 C 6,3 C
01.02.2013 13:21 6,9 C 80 % 1001,3 hPa 0,0 l/m 6,5 km/h (2 Bft) W-SW 247 3,7 C 5,8 C
01.02.2013 13:26 6,9 C 80 % 1001,2 hPa 0,0 l/m 6,8 km/h (2 Bft) W-SW 247 3,7 C 5,7 C
01.02.2013 13:31 6,9 C 80 % 1001,2 hPa 0,0 l/m 7,6 km/h (2 Bft) W-SW 247 3,7 C 5,5 C
01.02.2013 13:36 6,9 C 80 % 1001,2 hPa 0,0 l/m 6,5 km/h (2 Bft) W 270 3,7 C 5,8 C
01.02.2013 13:41 6,9 C 80 % 1001,0 hPa 0,0 l/m 8,3 km/h (2 Bft) W-SW 247 3,7 C 5,3 C
01.02.2013 13:46 6,9 C 80 % 1000,9 hPa 0,0 l/m 16,2 km/h (3 Bft) W-SW 247 3,7 C 3,9 C
01.02.2013 13:51 6,9 C 80 % 1000,8 hPa 0,0 l/m 4,3 km/h (1 Bft) W-SW 247 3,7 C 6,9 C
01.02.2013 13:56 6,8 C 80 % 1000,8 hPa 0,0 l/m 6,1 km/h (2 Bft) W-SW 247 3,6 C 5,8 C
01.02.2013 14:01 6,8 C 80 % 1000,7 hPa 0,0 l/m 5,0 km/h (1 Bft) W-SW 247 3,6 C 6,1 C
01.02.2013 14:06 6,8 C 80 % 1000,6 hPa 0,0 l/m 9,7 km/h (2 Bft) W-SW 247 3,6 C 4,9 C
01.02.2013 14:11 6,8 C 80 % 1000,5 hPa 0,0 l/m 10,1 km/h (2 Bft) W-SW 247 3,6 C 4,8 C
01.02.2013 14:16 6,8 C 80 % 1000,4 hPa 0,0 l/m 8,3 km/h (2 Bft) W-SW 247 3,6 C 5,2 C
01.02.2013 14:21 6,8 C 81 % 1000,3 hPa 0,0 l/m 7,6 km/h (2 Bft) W-SW 247 3,8 C 5,3 C
01.02.2013 14:26 6,8 C 81 % 1000,3 hPa 0,0 l/m 6,1 km/h (2 Bft) W-SW 247 3,8 C 5,8 C
01.02.2013 14:31 6,8 C 81 % 1000,2 hPa 0,0 l/m 5,0 km/h (1 Bft) W-SW 247 3,8 C 6,1 C
01.02.2013 14:36 6,9 C 81 % 1000,0 hPa 0,0 l/m 2,9 km/h (1 Bft) W-SW 247 3,9 C 6,9 C
01.02.2013 14:41 6,9 C 81 % 999,9 hPa 0,0 l/m 9,0 km/h (2 Bft) W-SW 247 3,9 C 5,1 C
01.02.2013 14:46 6,8 C 81 % 999,8 hPa 0,0 l/m 7,9 km/h (2 Bft) W-SW 247 3,8 C 5,3 C
01.02.2013 14:51 6,9 C 81 % 999,7 hPa 0,0 l/m 7,2 km/h (2 Bft) W-SW 247 3,9 C 5,6 C
01.02.2013 14:56 6,8 C 81 % 999,4 hPa 0,0 l/m 7,6 km/h (2 Bft) W-SW 247 3,8 C 5,3 C
01.02.2013 15:01 6,8 C 81 % 999,3 hPa 0,0 l/m 0,0 km/h (0 Bft) W-SW 247 3,8 C 6,8 C
01.02.2013 15:06 6,8 C 81 % 999,3 hPa 0,0 l/m 5,0 km/h (1 Bft) W-SW 247 3,8 C 6,1 C
01.02.2013 15:11 6,7 C 81 % 999,1 hPa 0,0 l/m 9,0 km/h (2 Bft) W-SW 247 3,7 C 4,9 C
01.02.2013 15:16 6,7 C 82 % 998,9 hPa 0,0 l/m 4,7 km/h (1 Bft) W-SW 247 3,8 C 6,1 C
01.02.2013 15:21 6,6 C 82 % 998,6 hPa 0,0 l/m 4,0 km/h (1 Bft) W-SW 247 3,8 C 6,6 C
01.02.2013 15:26 6,5 C 82 % 998,7 hPa 0,0 l/m 4,7 km/h (1 Bft) W-SW 247 3,7 C 5,9 C
01.02.2013 15:31 6,5 C 82 % 998,6 hPa 0,0 l/m 2,9 km/h (1 Bft) W-SW 247 3,7 C 6,5 C
01.02.2013 15:36 6,4 C 82 % 998,6 hPa 0,0 l/m 6,8 km/h (2 Bft) W-SW 247 3,6 C 5,1 C
01.02.2013 15:41 6,4 C 82 % 998,4 hPa 0,0 l/m 3,2 km/h (1 Bft) W-SW 247 3,6 C 6,4 C
01.02.2013 15:46 6,3 C 82 % 998,3 hPa 0,0 l/m 3,6 km/h (1 Bft) W-SW 247 3,5 C 6,3 C
01.02.2013 15:51 6,2 C 83 % 998,3 hPa 0,0 l/m 7,2 km/h (2 Bft) W-SW 247 3,5 C 4,8 C
01.02.2013 15:56 6,1 C 83 % 998,2 hPa 0,0 l/m 2,5 km/h (1 Bft) W-SW 247 3,4 C 6,1 C
01.02.2013 16:01 6,1 C 83 % 998,1 hPa 0,0 l/m 3,6 km/h (1 Bft) W-SW 247 3,4 C 6,1 C
01.02.2013 16:06 6,1 C 83 % 998,0 hPa 0,0 l/m 3,6 km/h (1 Bft) W-SW 247 3,4 C 6,1 C
01.02.2013 16:11 5,9 C 83 % 998,0 hPa 0,0 l/m 3,2 km/h (1 Bft) W-SW 247 3,2 C 5,9 C
01.02.2013 16:16 5,9 C 84 % 997,9 hPa 0,0 l/m 7,2 km/h (2 Bft) W-SW 247 3,4 C 4,4 C
01.02.2013 16:21 5,9 C 84 % 997,8 hPa 0,0 l/m 3,6 km/h (1 Bft) W-SW 247 3,4 C 5,9 C
01.02.2013 16:26 5,9 C 84 % 997,6 hPa 0,0 l/m 3,2 km/h (1 Bft) W-SW 247 3,4 C 5,9 C
01.02.2013 16:31 5,8 C 84 % 997,6 hPa 0,0 l/m 4,7 km/h (1 Bft) W-SW 247 3,3 C 5,1 C
01.02.2013 16:36 5,8 C 84 % 997,4 hPa 0,0 l/m 4,7 km/h (1 Bft) W-SW 247 3,3 C 5,1 C
01.02.2013 16:41 5,8 C 84 % 997,2 hPa 0,0 l/m 0,0 km/h (0 Bft) W-SW 247 3,3 C 5,8 C
01.02.2013 16:46 5,6 C 84 % 997,1 hPa 0,0 l/m 2,5 km/h (1 Bft) W-SW 247 3,1 C 5,6 C
01.02.2013 16:51 5,6 C 84 % 997,0 hPa 0,0 l/m 4,0 km/h (1 Bft) W-SW 247 3,1 C 5,6 C
01.02.2013 16:56 5,6 C 84 % 996,9 hPa 0,0 l/m 4,3 km/h (1 Bft) W-SW 247 3,1 C 5,6 C
01.02.2013 17:01 5,5 C 84 % 996,8 hPa 0,0 l/m 5,0 km/h (1 Bft) W-SW 247 3,0 C 4,7 C
01.02.2013 17:06 5,4 C 84 % 996,8 hPa 0,0 l/m 1,4 km/h (1 Bft) W-SW 247 2,9 C 5,4 C
01.02.2013 17:11 5,4 C 85 % 996,8 hPa 0,0 l/m 4,7 km/h (1 Bft) W-SW 247 3,1 C 4,7 C
01.02.2013 17:16 5,3 C 85 % 996,6 hPa 0,0 l/m 4,0 km/h (1 Bft) W-SW 247 3,0 C 5,3 C
01.02.2013 17:21 5,3 C 85 % 996,5 hPa 0,0 l/m 1,4 km/h (1 Bft) W 270 3,0 C 5,3 C
01.02.2013 17:26 5,3 C 85 % 996,4 hPa 0,0 l/m 6,1 km/h (2 Bft) W-SW 247 3,0 C 4,0 C
01.02.2013 17:31 5,3 C 86 % 996,4 hPa 0,0 l/m 5,4 km/h (1 Bft) W-SW 247 3,2 C 4,3 C
01.02.2013 17:36 5,2 C 86 % 996,3 hPa 0,0 l/m 4,7 km/h (1 Bft) W-SW 247 3,1 C 4,4 C
01.02.2013 17:41 5,2 C 86 % 996,4 hPa 0,0 l/m 5,8 km/h (2 Bft) W-SW 247 3,1 C 4,0 C
01.02.2013 17:46 5,1 C 86 % 996,4 hPa 0,0 l/m 5,4 km/h (1 Bft) W-SW 247 3,0 C 4,0 C
01.02.2013 17:51 5,1 C 86 % 996,2 hPa 0,0 l/m 4,0 km/h (1 Bft) W-SW 247 3,0 C 5,1 C
01.02.2013 17:56 5,1 C 86 % 996,2 hPa 0,0 l/m 3,6 km/h (1 Bft) W-SW 247 3,0 C 5,1 C
01.02.2013 18:01 5,1 C 86 % 996,2 hPa 0,0 l/m 4,7 km/h (1 Bft) W-SW 247 3,0 C 4,3 C
01.02.2013 18:06 5,1 C 86 % 996,1 hPa 0,0 l/m 4,7 km/h (1 Bft) W-SW 247 3,0 C 4,3 C
01.02.2013 18:11 5,1 C 87 % 996,1 hPa 0,0 l/m 14,8 km/h (3 Bft) W-SW 247 3,1 C 1,9 C
01.02.2013 18:16 5,1 C 87 % 996,1 hPa 0,0 l/m 8,6 km/h (2 Bft) W-SW 247 3,1 C 3,1 C
01.02.2013 18:21 5,1 C 87 % 996,1 hPa 0,0 l/m 5,0 km/h (1 Bft) W-SW 247 3,1 C 4,2 C
01.02.2013 18:26 5,1 C 87 % 996,1 hPa 0,0 l/m 7,2 km/h (2 Bft) W 270 3,1 C 3,5 C
01.02.2013 18:31 5,0 C 87 % 996,0 hPa 0,0 l/m 6,1 km/h (2 Bft) W-SW 247 3,0 C 3,7 C
01.02.2013 18:36 5,0 C 87 % 995,8 hPa 0,0 l/m 2,9 km/h (1 Bft) W-SW 247 3,0 C 5,0 C
01.02.2013 18:41 4,9 C 87 % 995,7 hPa 0,0 l/m 3,6 km/h (1 Bft) W-SW 247 2,9 C 4,9 C
01.02.2013 18:46 4,9 C 87 % 995,5 hPa 0,0 l/m 5,8 km/h (2 Bft) W-SW 247 2,9 C 3,7 C
01.02.2013 18:51 4,9 C 87 % 995,4 hPa 0,0 l/m 6,5 km/h (2 Bft) W-SW 247 2,9 C 3,4 C
01.02.2013 18:56 4,8 C 87 % 995,5 hPa 0,0 l/m 3,6 km/h (1 Bft) W-SW 247 2,8 C 4,8 C
01.02.2013 19:01 4,8 C 87 % 995,4 hPa 0,0 l/m 5,8 km/h (2 Bft) W-SW 247 2,8 C 3,6 C
01.02.2013 19:06 4,7 C 87 % 995,1 hPa 0,0 l/m 4,0 km/h (1 Bft) W-SW 247 2,7 C 4,7 C
01.02.2013 19:11 4,7 C 87 % 995,0 hPa 0,0 l/m 4,7 km/h (1 Bft) W-SW 247 2,7 C 3,9 C
01.02.2013 19:16 4,6 C 87 % 995,0 hPa 0,0 l/m 11,5 km/h (2 Bft) W-SW 247 2,6 C 1,9 C
01.02.2013 19:21 4,6 C 88 % 994,8 hPa 0,0 l/m 4,0 km/h (1 Bft) W-SW 247 2,8 C 4,6 C
01.02.2013 19:26 4,5 C 88 % 994,7 hPa 0,0 l/m 4,0 km/h (1 Bft) W-SW 247 2,7 C 4,5 C
01.02.2013 19:31 4,5 C 88 % 994,6 hPa 0,0 l/m 0,0 km/h (0 Bft) W-SW 247 2,7 C 4,5 C
01.02.2013 19:36 4,4 C 88 % 994,4 hPa 0,0 l/m 1,4 km/h (1 Bft) W-SW 247 2,6 C 4,4 C
01.02.2013 19:41 4,4 C 88 % 994,4 hPa 0,0 l/m 4,0 km/h (1 Bft) W-SW 247 2,6 C 4,4 C
01.02.2013 19:46 4,3 C 88 % 994,2 hPa 0,0 l/m 0,0 km/h (0 Bft) W-SW 247 2,5 C 4,3 C
01.02.2013 19:51 4,3 C 88 % 994,3 hPa 0,0 l/m 8,3 km/h (2 Bft) W-SW 247 2,5 C 2,2 C
01.02.2013 19:56 4,2 C 88 % 994,3 hPa 0,0 l/m 13,3 km/h (3 Bft) W-SW 247 2,4 C 1,0 C
01.02.2013 20:01 4,1 C 88 % 994,3 hPa 0,0 l/m 6,5 km/h (2 Bft) W-SW 247 2,3 C 2,5 C
01.02.2013 20:06 4,1 C 88 % 994,2 hPa 0,5 l/m 4,3 km/h (1 Bft) W-SW 247 2,3 C 4,1 C
01.02.2013 20:11 4,1 C 88 % 994,2 hPa 0,0 l/m 13,3 km/h (3 Bft) W-SW 247 2,3 C 0,9 C
01.02.2013 20:16 4,1 C 88 % 994,1 hPa 0,0 l/m 3,2 km/h (1 Bft) W-SW 247 2,3 C 4,1 C
01.02.2013 20:21 4,1 C 89 % 994,1 hPa 0,0 l/m 6,1 km/h (2 Bft) W-SW 247 2,5 C 2,7 C
01.02.2013 20:26 4,1 C 89 % 994,0 hPa 0,0 l/m 4,7 km/h (1 Bft) W-SW 247 2,5 C 3,2 C
01.02.2013 20:31 4,1 C 89 % 994,0 hPa 0,0 l/m 2,2 km/h (1 Bft) W-SW 247 2,5 C 4,1 C
01.02.2013 20:36 4,1 C 89 % 994,0 hPa 0,0 l/m 2,2 km/h (1 Bft) W-SW 247 2,5 C 4,1 C
01.02.2013 20:41 4,1 C 89 % 994,1 hPa 0,0 l/m 1,8 km/h (1 Bft) W-SW 247 2,5 C 4,1 C
01.02.2013 20:46 4,1 C 89 % 993,9 hPa 0,0 l/m 0,0 km/h (0 Bft) W-SW 247 2,5 C 4,1 C
01.02.2013 20:51 4,1 C 89 % 993,8 hPa 0,0 l/m 1,4 km/h (1 Bft) W-SW 247 2,5 C 4,1 C
01.02.2013 20:56 4,1 C 89 % 993,7 hPa 0,5 l/m 0,0 km/h (0 Bft) W-SW 247 2,5 C 4,1 C
01.02.2013 21:01 4,1 C 89 % 993,7 hPa 0,0 l/m 1,8 km/h (1 Bft) W-SW 247 2,5 C 4,1 C
01.02.2013 21:06 4,1 C 89 % 993,5 hPa 0,0 l/m 0,0 km/h (0 Bft) W-SW 247 2,5 C 4,1 C
01.02.2013 21:11 4,1 C 89 % 993,4 hPa 0,0 l/m 1,1 km/h (1 Bft) W-SW 247 2,5 C 4,1 C
01.02.2013 21:16 4,1 C 89 % 993,4 hPa 0,0 l/m 0,0 km/h (0 Bft) W-SW 247 2,5 C 4,1 C
01.02.2013 21:21 4,1 C 90 % 993,0 hPa 0,0 l/m 1,4 km/h (1 Bft) W-SW 247 2,6 C 4,1 C
01.02.2013 21:26 4,1 C 90 % 992,7 hPa 0,0 l/m 1,8 km/h (1 Bft) W-SW 247 2,6 C 4,1 C
01.02.2013 21:31 4,1 C 90 % 992,7 hPa 0,0 l/m 2,5 km/h (1 Bft) W-SW 247 2,6 C 4,1 C
01.02.2013 21:36 4,1 C 90 % 992,7 hPa 0,5 l/m 1,8 km/h (1 Bft) W-SW 247 2,6 C 4,1 C
01.02.2013 21:41 4,0 C 90 % 992,7 hPa 0,0 l/m 4,0 km/h (1 Bft) W-SW 247 2,5 C 4,0 C
01.02.2013 21:46 3,9 C 90 % 992,6 hPa 0,0 l/m 2,2 km/h (1 Bft) W-SW 247 2,4 C 3,9 C
01.02.2013 21:51 3,9 C 90 % 992,6 hPa 0,0 l/m 5,8 km/h (2 Bft) W-SW 247 2,4 C 2,5 C
01.02.2013 21:56 3,9 C 90 % 992,4 hPa 0,0 l/m 5,0 km/h (1 Bft) W-SW 247 2,4 C 2,8 C
01.02.2013 22:01 3,8 C 90 % 992,4 hPa 0,5 l/m 5,8 km/h (2 Bft) W-SW 247 2,3 C 2,4 C
01.02.2013 22:06 3,8 C 90 % 992,3 hPa 0,0 l/m 2,2 km/h (1 Bft) W-SW 247 2,3 C 3,8 C
01.02.2013 22:11 3,8 C 90 % 992,2 hPa 0,0 l/m 0,0 km/h (0 Bft) W-SW 247 2,3 C 3,8 C
01.02.2013 22:16 3,7 C 90 % 992,2 hPa 0,0 l/m 0,0 km/h (0 Bft) W-SW 247 2,2 C 3,7 C
01.02.2013 22:21 3,6 C 90 % 992,0 hPa 0,0 l/m 1,1 km/h (1 Bft) W-SW 247 2,1 C 3,6 C
01.02.2013 22:26 3,6 C 90 % 991,8 hPa 0,0 l/m 0,0 km/h (0 Bft) W-SW 247 2,1 C 3,6 C
01.02.2013 22:31 3,6 C 90 % 991,8 hPa 0,0 l/m 0,0 km/h (0 Bft) W-SW 247 2,1 C 3,6 C
01.02.2013 22:36 3,6 C 90 % 991,8 hPa 0,0 l/m 0,0 km/h (0 Bft) W-SW 247 2,1 C 3,6 C
01.02.2013 22:41 3,6 C 90 % 991,7 hPa 0,0 l/m 2,2 km/h (1 Bft) W-SW 247 2,1 C 3,6 C
01.02.2013 22:46 3,6 C 90 % 991,7 hPa 0,5 l/m 2,9 km/h (1 Bft) W-SW 247 2,1 C 3,6 C
01.02.2013 22:51 3,6 C 90 % 991,4 hPa 0,0 l/m 0,0 km/h (0 Bft) W 270 2,1 C 3,6 C
01.02.2013 22:56 3,5 C 90 % 991,4 hPa 0,0 l/m 0,0 km/h (0 Bft) W 270 2,0 C 3,5 C
01.02.2013 23:01 3,5 C 90 % 991,3 hPa 0,0 l/m 0,0 km/h (0 Bft) W 270 2,0 C 3,5 C
01.02.2013 23:06 3,5 C 90 % 991,1 hPa 0,0 l/m 0,0 km/h (0 Bft) W 270 2,0 C 3,5 C
01.02.2013 23:11 3,5 C 90 % 991,1 hPa 0,0 l/m 0,0 km/h (0 Bft) W 270 2,0 C 3,5 C
01.02.2013 23:16 3,5 C 90 % 991,2 hPa 0,0 l/m 0,0 km/h (0 Bft) W 270 2,0 C 3,5 C
01.02.2013 23:21 3,5 C 90 % 991,0 hPa 0,5 l/m 0,0 km/h (0 Bft) W-SW 247 2,0 C 3,5 C
01.02.2013 23:26 3,4 C 90 % 991,1 hPa 0,0 l/m 0,0 km/h (0 Bft) W-SW 247 1,9 C 3,4 C
01.02.2013 23:31 3,4 C 91 % 991,1 hPa 0,0 l/m 1,4 km/h (1 Bft) N-NW 337 2,1 C 3,4 C
01.02.2013 23:36 3,4 C 91 % 990,9 hPa 0,0 l/m 0,0 km/h (0 Bft) N-NW 337 2,1 C 3,4 C
01.02.2013 23:41 3,4 C 91 % 991,1 hPa 0,0 l/m 0,0 km/h (0 Bft) N-NW 337 2,1 C 3,4 C
01.02.2013 23:46 3,3 C 91 % 991,0 hPa 0,0 l/m 1,4 km/h (1 Bft) N-NW 337 2,0 C 3,3 C
01.02.2013 23:51 3,3 C 91 % 991,0 hPa 0,0 l/m 0,0 km/h (0 Bft) N-NW 337 2,0 C 3,3 C
01.02.2013 23:56 3,3 C 91 % 991,0 hPa 0,0 l/m 0,0 km/h (0 Bft) N-NW 337 2,0 C 3,3 C
_ Min-Zeit 23:46 00:26 23:36 - 15:01 - - 23:26 20:11
Minimum _ 3,3 C 72 % 990,9 hPa - 0,0 km/h (0 Bft) - - 1,9 C 0,9 C
_ Max-Zeit 12:16 23:31 05:06 10:06 03:46 - - 12:16 11:51
Maximum _ 7,1 C 91 % 1004,0 hPa 0,5 l/m 43,6 km/h
W (6 Bft)
- - 3,9 C 6,9 C
Durchschnitt _ 5,6 C 82 % 999,8 hPa #3,6 l/m 10,2 km/h (2 Bft) W-SW - 2,8 C 3,8 C
(c) by David Heller